sensor_id;sensor_type;location;lat;lon;timestamp;pressure;altitude;pressure_sealevel;temperature;humidity
30636;BME280;17400;52.392;9.750;2023-04-25T00:01:27;100028.69;;;9.10;100.00
30636;BME280;17400;52.392;9.750;2023-04-25T00:03:56;100033.28;;;9.09;100.00
30636;BME280;17400;52.392;9.750;2023-04-25T00:06:24;100034.06;;;9.03;100.00
30636;BME280;17400;52.392;9.750;2023-04-25T00:08:53;100034.72;;;9.05;100.00
30636;BME280;17400;52.392;9.750;2023-04-25T00:11:22;100033.03;;;9.04;100.00
30636;BME280;17400;52.392;9.750;2023-04-25T00:13:49;100033.22;;;8.96;100.00
30636;BME280;17400;52.392;9.750;2023-04-25T00:16:20;100029.69;;;9.02;100.00
30636;BME280;17400;52.392;9.750;2023-04-25T00:18:51;100038.44;;;9.04;100.00
30636;BME280;17400;52.392;9.750;2023-04-25T00:21:21;100041.91;;;8.84;100.00
30636;BME280;17400;52.392;9.750;2023-04-25T00:23:52;100043.81;;;8.91;100.00
30636;BME280;17400;52.392;9.750;2023-04-25T00:26:19;100044.41;;;8.86;100.00
30636;BME280;17400;52.392;9.750;2023-04-25T00:28:48;100046.72;;;8.89;100.00
30636;BME280;17400;52.392;9.750;2023-04-25T00:31:15;100039.88;;;8.93;100.00
30636;BME280;17400;52.392;9.750;2023-04-25T00:33:43;100037.41;;;8.98;100.00
30636;BME280;17400;52.392;9.750;2023-04-25T00:36:11;100044.44;;;8.99;100.00
30636;BME280;17400;52.392;9.750;2023-04-25T00:38:40;100038.22;;;9.06;100.00
30636;BME280;17400;52.392;9.750;2023-04-25T00:41:08;100041.13;;;8.97;100.00
30636;BME280;17400;52.392;9.750;2023-04-25T00:43:36;100039.84;;;8.87;100.00
30636;BME280;17400;52.392;9.750;2023-04-25T00:46:04;100042.94;;;8.83;100.00
30636;BME280;17400;52.392;9.750;2023-04-25T00:48:33;100042.13;;;8.90;100.00
30636;BME280;17400;52.392;9.750;2023-04-25T00:51:01;100035.50;;;8.92;100.00
30636;BME280;17400;52.392;9.750;2023-04-25T00:53:30;100033.63;;;8.93;100.00
30636;BME280;17400;52.392;9.750;2023-04-25T00:55:59;100035.91;;;8.89;100.00
30636;BME280;17400;52.392;9.750;2023-04-25T00:58:27;100035.91;;;8.89;100.00
30636;BME280;17400;52.392;9.750;2023-04-25T01:00:55;100030.31;;;8.91;100.00
30636;BME280;17400;52.392;9.750;2023-04-25T01:03:24;100032.13;;;8.83;100.00
30636;BME280;17400;52.392;9.750;2023-04-25T01:05:55;100035.91;;;8.89;100.00
30636;BME280;17400;52.392;9.750;2023-04-25T01:08:24;100029.44;;;8.83;100.00
30636;BME280;17400;52.392;9.750;2023-04-25T01:10:52;100035.69;;;8.84;100.00
30636;BME280;17400;52.392;9.750;2023-04-25T01:13:21;100029.06;;;8.87;100.00
30636;BME280;17400;52.392;9.750;2023-04-25T01:15:48;100023.66;;;8.87;100.00
30636;BME280;17400;52.392;9.750;2023-04-25T01:18:16;100025.25;;;8.74;100.00
30636;BME280;17400;52.392;9.750;2023-04-25T01:20:44;100024.84;;;8.71;100.00
30636;BME280;17400;52.392;9.750;2023-04-25T01:23:14;100022.97;;;8.71;100.00
30636;BME280;17400;52.392;9.750;2023-04-25T01:25:42;100021.78;;;8.87;100.00
30636;BME280;17400;52.392;9.750;2023-04-25T01:28:10;100023.22;;;8.83;100.00
30636;BME280;17400;52.392;9.750;2023-04-25T01:30:40;100018.66;;;8.90;100.00
30636;BME280;17400;52.392;9.750;2023-04-25T01:33:08;100018.88;;;8.89;100.00
30636;BME280;17400;52.392;9.750;2023-04-25T01:35:36;100020.09;;;8.86;100.00
30636;BME280;17400;52.392;9.750;2023-04-25T01:38:04;100025.34;;;8.94;100.00
30636;BME280;17400;52.392;9.750;2023-04-25T01:40:33;100016.19;;;9.02;100.00
30636;BME280;17400;52.392;9.750;2023-04-25T01:43:02;100016.63;;;8.99;100.00
30636;BME280;17400;52.392;9.750;2023-04-25T01:45:30;100029.28;;;8.92;100.00
30636;BME280;17400;52.392;9.750;2023-04-25T01:47:59;100030.53;;;8.89;100.00
30636;BME280;17400;52.392;9.750;2023-04-25T01:50:27;100023.78;;;8.72;100.00
30636;BME280;17400;52.392;9.750;2023-04-25T01:52:56;100031.88;;;8.72;100.00
30636;BME280;17400;52.392;9.750;2023-04-25T01:55:24;100033.06;;;8.56;100.00
30636;BME280;17400;52.392;9.750;2023-04-25T01:57:53;100040.72;;;8.45;100.00
30636;BME280;17400;52.392;9.750;2023-04-25T02:00:21;100037.63;;;8.55;100.00
30636;BME280;17400;52.392;9.750;2023-04-25T02:02:49;100046.56;;;8.56;100.00
30636;BME280;17400;52.392;9.750;2023-04-25T02:05:17;100048.88;;;8.59;100.00
30636;BME280;17400;52.392;9.750;2023-04-25T02:07:45;100048.81;;;8.45;100.00
30636;BME280;17400;52.392;9.750;2023-04-25T02:10:13;100064.03;;;8.31;100.00
30636;BME280;17400;52.392;9.750;2023-04-25T02:12:41;100066.38;;;8.41;100.00
30636;BME280;17400;52.392;9.750;2023-04-25T02:15:10;100057.03;;;8.44;100.00
30636;BME280;17400;52.392;9.750;2023-04-25T02:17:38;100059.44;;;8.54;100.00
30636;BME280;17400;52.392;9.750;2023-04-25T02:20:06;100055.47;;;8.49;100.00
30636;BME280;17400;52.392;9.750;2023-04-25T02:22:34;100069.91;;;8.42;100.00
30636;BME280;17400;52.392;9.750;2023-04-25T02:25:02;100074.47;;;8.41;100.00
30636;BME280;17400;52.392;9.750;2023-04-25T02:27:31;100076.59;;;8.17;100.00
30636;BME280;17400;52.392;9.750;2023-04-25T02:29:58;100086.19;;;8.27;100.00
30636;BME280;17400;52.392;9.750;2023-04-25T02:32:28;100093.50;;;8.33;100.00
30636;BME280;17400;52.392;9.750;2023-04-25T02:34:55;100092.81;;;8.53;100.00
30636;BME280;17400;52.392;9.750;2023-04-25T02:37:25;100099.91;;;8.54;100.00
30636;BME280;17400;52.392;9.750;2023-04-25T02:39:52;100100.72;;;8.54;100.00
30636;BME280;17400;52.392;9.750;2023-04-25T02:42:20;100095.31;;;8.54;100.00
30636;BME280;17400;52.392;9.750;2023-04-25T02:44:47;100110.69;;;8.54;100.00
30636;BME280;17400;52.392;9.750;2023-04-25T02:47:15;100103.66;;;8.59;100.00
30636;BME280;17400;52.392;9.750;2023-04-25T02:49:45;100092.91;;;8.66;100.00
30636;BME280;17400;52.392;9.750;2023-04-25T02:52:12;100092.91;;;8.66;100.00
30636;BME280;17400;52.392;9.750;2023-04-25T02:54:41;100090.84;;;8.68;100.00
30636;BME280;17400;52.392;9.750;2023-04-25T02:57:09;100094.56;;;8.67;100.00
30636;BME280;17400;52.392;9.750;2023-04-25T02:59:37;100100.44;;;8.77;100.00
30636;BME280;17400;52.392;9.750;2023-04-25T03:02:05;100100.66;;;8.76;100.00
30636;BME280;17400;52.392;9.750;2023-04-25T03:04:33;100104.19;;;8.83;100.00
30636;BME280;17400;52.392;9.750;2023-04-25T03:07:02;100097.56;;;8.86;100.00
30636;BME280;17400;52.392;9.750;2023-04-25T03:09:30;100094.19;;;8.77;100.00
30636;BME280;17400;52.392;9.750;2023-04-25T03:11:58;100094.19;;;8.77;100.00
30636;BME280;17400;52.392;9.750;2023-04-25T03:14:26;100103.50;;;8.74;100.00
30636;BME280;17400;52.392;9.750;2023-04-25T03:16:54;100100.19;;;8.72;100.00
30636;BME280;17400;52.392;9.750;2023-04-25T03:19:22;100102.50;;;8.75;100.00
30636;BME280;17400;52.392;9.750;2023-04-25T03:21:50;100104.19;;;8.83;100.00
30636;BME280;17400;52.392;9.750;2023-04-25T03:24:19;100108.34;;;8.86;100.00
30636;BME280;17400;52.392;9.750;2023-04-25T03:26:46;100108.59;;;8.91;100.00
30636;BME280;17400;52.392;9.750;2023-04-25T03:29:14;100116.00;;;8.82;100.00
30636;BME280;17400;52.392;9.750;2023-04-25T03:31:42;100114.34;;;8.81;100.00
30636;BME280;17400;52.392;9.750;2023-04-25T03:34:09;100124.81;;;8.62;100.00
30636;BME280;17400;52.392;9.750;2023-04-25T03:36:37;100126.50;;;8.63;100.00
30636;BME280;17400;52.392;9.750;2023-04-25T03:39:07;100131.50;;;8.66;100.00
30636;BME280;17400;52.392;9.750;2023-04-25T03:41:36;100126.50;;;8.63;100.00
30636;BME280;17400;52.392;9.750;2023-04-25T03:44:04;100140.25;;;8.69;100.00
30636;BME280;17400;52.392;9.750;2023-04-25T03:46:32;100133.81;;;8.70;100.00
30636;BME280;17400;52.392;9.750;2023-04-25T03:48:59;100143.59;;;8.71;100.00
30636;BME280;17400;52.392;9.750;2023-04-25T03:51:27;100148.53;;;8.67;100.00
30636;BME280;17400;52.392;9.750;2023-04-25T03:53:55;100151.28;;;8.74;100.00
30636;BME280;17400;52.392;9.750;2023-04-25T03:56:22;100153.59;;;8.48;100.00
30636;BME280;17400;52.392;9.750;2023-04-25T03:58:51;100152.59;;;8.49;100.00
30636;BME280;17400;52.392;9.750;2023-04-25T04:01:19;100153.81;;;8.47;100.00
30636;BME280;17400;52.392;9.750;2023-04-25T04:03:47;100158.84;;;8.57;100.00
30636;BME280;17400;52.392;9.750;2023-04-25T04:06:15;100155.38;;;8.63;100.00
30636;BME280;17400;52.392;9.750;2023-04-25T04:08:44;100162.31;;;8.50;100.00
30636;BME280;17400;52.392;9.750;2023-04-25T04:11:12;100157.31;;;8.47;100.00
30636;BME280;17400;52.392;9.750;2023-04-25T04:13:39;100158.22;;;8.55;100.00
30636;BME280;17400;52.392;9.750;2023-04-25T04:16:08;100163.84;;;8.60;100.00
30636;BME280;17400;52.392;9.750;2023-04-25T04:18:36;100163.69;;;8.68;100.00
30636;BME280;17400;52.392;9.750;2023-04-25T04:21:07;100165.34;;;8.69;100.00
30636;BME280;17400;52.392;9.750;2023-04-25T04:23:35;100170.97;;;8.74;100.00
30636;BME280;17400;52.392;9.750;2023-04-25T04:26:05;100170.75;;;8.69;100.00
30636;BME280;17400;52.392;9.750;2023-04-25T04:28:33;100172.44;;;8.77;100.00
30636;BME280;17400;52.392;9.750;2023-04-25T04:31:02;100163.97;;;8.80;100.00
30636;BME280;17400;52.392;9.750;2023-04-25T04:33:31;100177.66;;;8.78;100.00
30636;BME280;17400;52.392;9.750;2023-04-25T04:36:00;100176.84;;;8.84;100.00
30636;BME280;17400;52.392;9.750;2023-04-25T04:38:29;100184.56;;;8.88;100.00
30636;BME280;17400;52.392;9.750;2023-04-25T04:40:57;100188.53;;;8.92;100.00
30636;BME280;17400;52.392;9.750;2023-04-25T04:43:25;100182.50;;;8.90;100.00
30636;BME280;17400;52.392;9.750;2023-04-25T04:45:52;100183.03;;;8.78;100.00
30636;BME280;17400;52.392;9.750;2023-04-25T04:48:22;100190.03;;;8.66;100.00
30636;BME280;17400;52.392;9.750;2023-04-25T04:50:52;100193.28;;;8.55;100.00
30636;BME280;17400;52.392;9.750;2023-04-25T04:53:20;100194.56;;;8.59;100.00
30636;BME280;17400;52.392;9.750;2023-04-25T04:55:50;100196.84;;;8.62;100.00
30636;BME280;17400;52.392;9.750;2023-04-25T04:58:18;100201.22;;;8.63;100.00
30636;BME280;17400;52.392;9.750;2023-04-25T05:00:46;100204.97;;;8.62;100.00
30636;BME280;17400;52.392;9.750;2023-04-25T05:03:14;100210.16;;;8.63;100.00
30636;BME280;17400;52.392;9.750;2023-04-25T05:05:42;100215.78;;;8.69;100.00
30636;BME280;17400;52.392;9.750;2023-04-25T05:08:11;100216.81;;;8.67;99.44
30636;BME280;17400;52.392;9.750;2023-04-25T05:10:38;100224.88;;;8.61;100.00
30636;BME280;17400;52.392;9.750;2023-04-25T05:13:06;100220.22;;;8.76;100.00
30636;BME280;17400;52.392;9.750;2023-04-25T05:15:34;100225.75;;;8.68;99.10
30636;BME280;17400;52.392;9.750;2023-04-25T05:18:04;100219.13;;;8.71;98.78
30636;BME280;17400;52.392;9.750;2023-04-25T05:20:32;100225.50;;;8.63;99.61
30636;BME280;17400;52.392;9.750;2023-04-25T05:22:59;100228.59;;;8.60;99.56
30636;BME280;17400;52.392;9.750;2023-04-25T05:25:28;100232.13;;;8.60;99.23
30636;BME280;17400;52.392;9.750;2023-04-25T05:27:56;100236.69;;;8.60;100.00
30636;BME280;17400;52.392;9.750;2023-04-25T05:30:25;100248.28;;;8.54;99.01
30636;BME280;17400;52.392;9.750;2023-04-25T05:32:53;100242.97;;;8.67;99.34
30636;BME280;17400;52.392;9.750;2023-04-25T05:35:22;100248.63;;;8.72;98.14
30636;BME280;17400;52.392;9.750;2023-04-25T05:37:50;100249.91;;;8.76;97.75
30636;BME280;17400;52.392;9.750;2023-04-25T05:40:18;100251.94;;;8.74;95.34
30636;BME280;17400;52.392;9.750;2023-04-25T05:42:47;100255.19;;;8.63;95.75
30636;BME280;17400;52.392;9.750;2023-04-25T05:45:14;100261.88;;;8.67;96.33
30636;BME280;17400;52.392;9.750;2023-04-25T05:47:43;100255.56;;;8.60;93.98
30636;BME280;17400;52.392;9.750;2023-04-25T05:50:11;100267.00;;;8.62;94.48
30636;BME280;17400;52.392;9.750;2023-04-25T05:52:39;100268.78;;;8.76;94.29
30636;BME280;17400;52.392;9.750;2023-04-25T05:55:08;100271.09;;;8.79;92.80
30636;BME280;17400;52.392;9.750;2023-04-25T05:57:35;100271.50;;;8.76;90.97
30636;BME280;17400;52.392;9.750;2023-04-25T06:00:06;100271.09;;;8.79;93.31
30636;BME280;17400;52.392;9.750;2023-04-25T06:02:35;100281.59;;;8.96;93.27
30636;BME280;17400;52.392;9.750;2023-04-25T06:05:04;100286.94;;;8.89;91.42
30636;BME280;17400;52.392;9.750;2023-04-25T06:07:32;100286.94;;;8.89;92.02
30636;BME280;17400;52.392;9.750;2023-04-25T06:10:01;100286.16;;;8.95;91.68
30636;BME280;17400;52.392;9.750;2023-04-25T06:12:30;100292.31;;;8.82;91.28
30636;BME280;17400;52.392;9.750;2023-04-25T06:14:57;100288.31;;;8.78;92.68
30636;BME280;17400;52.392;9.750;2023-04-25T06:17:26;100293.06;;;8.76;91.20
30636;BME280;17400;52.392;9.750;2023-04-25T06:19:54;100298.38;;;8.63;91.42
30636;BME280;17400;52.392;9.750;2023-04-25T06:22:22;100306.97;;;8.73;91.90
30636;BME280;17400;52.392;9.750;2023-04-25T06:24:49;100302.75;;;8.64;91.72
30636;BME280;17400;52.392;9.750;2023-04-25T06:27:17;100306.06;;;8.66;91.48
30636;BME280;17400;52.392;9.750;2023-04-25T06:29:45;100303.38;;;8.66;90.64
30636;BME280;17400;52.392;9.750;2023-04-25T06:32:12;100300.94;;;8.49;92.48
30636;BME280;17400;52.392;9.750;2023-04-25T06:34:43;100304.78;;;8.40;92.85
30636;BME280;17400;52.392;9.750;2023-04-25T06:37:10;100304.13;;;8.38;93.54
30636;BME280;17400;52.392;9.750;2023-04-25T06:39:39;100308.44;;;8.54;93.53
30636;BME280;17400;52.392;9.750;2023-04-25T06:42:07;100306.22;;;8.58;92.85
30636;BME280;17400;52.392;9.750;2023-04-25T06:44:35;100304.03;;;8.46;93.11
30636;BME280;17400;52.392;9.750;2023-04-25T06:47:02;100310.06;;;8.48;91.87
30636;BME280;17400;52.392;9.750;2023-04-25T06:49:30;100309.31;;;8.55;91.01
30636;BME280;17400;52.392;9.750;2023-04-25T06:51:59;100311.91;;;8.70;89.74
30636;BME280;17400;52.392;9.750;2023-04-25T06:54:27;100305.34;;;8.79;88.91
30636;BME280;17400;52.392;9.750;2023-04-25T06:56:56;100318.34;;;8.97;86.46
30636;BME280;17400;52.392;9.750;2023-04-25T06:59:24;100321.13;;;9.04;86.18
30636;BME280;17400;52.392;9.750;2023-04-25T07:01:51;100322.66;;;8.91;84.47
30636;BME280;17400;52.392;9.750;2023-04-25T07:04:19;100326.97;;;9.14;85.39
30636;BME280;17400;52.392;9.750;2023-04-25T07:06:47;100323.09;;;9.23;82.99
30636;BME280;17400;52.392;9.750;2023-04-25T07:09:17;100312.84;;;9.12;82.29
30636;BME280;17400;52.392;9.750;2023-04-25T07:11:44;100319.91;;;9.06;84.38
30636;BME280;17400;52.392;9.750;2023-04-25T07:14:12;100326.22;;;8.92;84.44
30636;BME280;17400;52.392;9.750;2023-04-25T07:16:40;100336.06;;;8.78;82.55
30636;BME280;17400;52.392;9.750;2023-04-25T07:19:08;100323.78;;;8.75;82.84
30636;BME280;17400;52.392;9.750;2023-04-25T07:21:36;100328.31;;;8.68;84.02
30636;BME280;17400;52.392;9.750;2023-04-25T07:24:04;100335.66;;;8.81;85.43
30636;BME280;17400;52.392;9.750;2023-04-25T07:26:34;100339.22;;;8.81;84.01
30636;BME280;17400;52.392;9.750;2023-04-25T07:29:01;100335.09;;;8.86;83.05
30636;BME280;17400;52.392;9.750;2023-04-25T07:31:29;100349.47;;;8.93;82.73
30636;BME280;17400;52.392;9.750;2023-04-25T07:33:57;100350.16;;;9.02;79.97
30636;BME280;17400;52.392;9.750;2023-04-25T07:36:27;100350.88;;;8.89;79.33
30636;BME280;17400;52.392;9.750;2023-04-25T07:38:55;100351.84;;;9.03;79.51
30636;BME280;17400;52.392;9.750;2023-04-25T07:41:23;100353.03;;;8.93;79.27
30636;BME280;17400;52.392;9.750;2023-04-25T07:43:52;100344.81;;;9.08;78.62
30636;BME280;17400;52.392;9.750;2023-04-25T07:46:20;100355.66;;;9.15;76.66
30636;BME280;17400;52.392;9.750;2023-04-25T07:48:49;100350.31;;;9.22;77.58
30636;BME280;17400;52.392;9.750;2023-04-25T07:51:17;100359.47;;;9.27;76.50
30636;BME280;17400;52.392;9.750;2023-04-25T07:53:47;100360.53;;;9.26;74.36
30636;BME280;17400;52.392;9.750;2023-04-25T07:56:16;100367.59;;;9.27;73.86
30636;BME280;17400;52.392;9.750;2023-04-25T07:58:44;100363.78;;;9.43;74.07
30636;BME280;17400;52.392;9.750;2023-04-25T08:01:13;100364.78;;;9.42;72.13
30636;BME280;17400;52.392;9.750;2023-04-25T08:03:41;100373.84;;;9.28;69.67
30636;BME280;17400;52.392;9.750;2023-04-25T08:06:09;100378.63;;;9.32;70.89
30636;BME280;17400;52.392;9.750;2023-04-25T08:08:37;100375.63;;;8.92;70.16
30636;BME280;17400;52.392;9.750;2023-04-25T08:11:05;100371.63;;;9.10;69.26
30636;BME280;17400;52.392;9.750;2023-04-25T08:13:32;100382.34;;;9.25;67.82
30636;BME280;17400;52.392;9.750;2023-04-25T08:16:00;100379.50;;;9.33;66.24
30636;BME280;17400;52.392;9.750;2023-04-25T08:18:29;100379.50;;;9.33;64.19
30636;BME280;17400;52.392;9.750;2023-04-25T08:20:57;100380.81;;;9.44;61.45
30636;BME280;17400;52.392;9.750;2023-04-25T08:23:27;100379.00;;;9.58;59.78
30636;BME280;17400;52.392;9.750;2023-04-25T08:25:55;100384.06;;;9.67;61.76
30636;BME280;17400;52.392;9.750;2023-04-25T08:28:23;100382.22;;;9.75;62.49
30636;BME280;17400;52.392;9.750;2023-04-25T08:30:51;100380.91;;;9.99;60.12
30636;BME280;17400;52.392;9.750;2023-04-25T08:33:18;100388.91;;;9.79;57.79
30636;BME280;17400;52.392;9.750;2023-04-25T08:35:47;100391.66;;;9.50;59.88
30636;BME280;17400;52.392;9.750;2023-04-25T08:38:16;100388.00;;;9.65;61.34
30636;BME280;17400;52.392;9.750;2023-04-25T08:40:49;100391.31;;;9.67;57.80
30636;BME280;17400;52.392;9.750;2023-04-25T08:43:18;100393.56;;;9.57;57.94
30636;BME280;17400;52.392;9.750;2023-04-25T08:45:47;100397.09;;;9.57;58.72
30636;BME280;17400;52.392;9.750;2023-04-25T08:48:16;100394.84;;;9.61;58.25
30636;BME280;17400;52.392;9.750;2023-04-25T08:50:49;100399.44;;;9.67;58.27
30636;BME280;17400;52.392;9.750;2023-04-25T08:53:22;100397.13;;;9.64;57.08
30636;BME280;17400;52.392;9.750;2023-04-25T08:55:52;100400.78;;;9.49;57.75
30636;BME280;17400;52.392;9.750;2023-04-25T08:58:21;100410.16;;;9.54;57.58
30636;BME280;17400;52.392;9.750;2023-04-25T09:00:50;100412.63;;;9.48;57.37
30636;BME280;17400;52.392;9.750;2023-04-25T09:03:20;100424.38;;;9.34;58.62
30636;BME280;17400;52.392;9.750;2023-04-25T09:05:50;100426.97;;;9.49;59.66
30636;BME280;17400;52.392;9.750;2023-04-25T09:08:19;100425.25;;;9.41;59.36
30636;BME280;17400;52.392;9.750;2023-04-25T09:10:47;100439.03;;;9.46;58.62
30636;BME280;17400;52.392;9.750;2023-04-25T09:13:24;100440.25;;;9.44;56.77
30636;BME280;17400;52.392;9.750;2023-04-25T09:15:53;100438.66;;;9.56;52.57
30636;BME280;17400;52.392;9.750;2023-04-25T09:18:25;100448.69;;;9.62;51.79
30636;BME280;17400;52.392;9.750;2023-04-25T09:21:04;100449.00;;;9.81;51.13
30636;BME280;17400;52.392;9.750;2023-04-25T09:23:40;100451.28;;;9.77;49.80
30636;BME280;17400;52.392;9.750;2023-04-25T09:26:08;100442.78;;;9.80;48.80
30636;BME280;17400;52.392;9.750;2023-04-25T09:28:36;100449.66;;;9.83;49.18
30636;BME280;17400;52.392;9.750;2023-04-25T09:31:04;100449.00;;;9.81;48.99
30636;BME280;17400;52.392;9.750;2023-04-25T09:33:33;100453.44;;;9.89;49.22
30636;BME280;17400;52.392;9.750;2023-04-25T09:36:05;100456.53;;;9.86;49.50
30636;BME280;17400;52.392;9.750;2023-04-25T09:38:40;100461.84;;;10.07;48.95
30636;BME280;17400;52.392;9.750;2023-04-25T09:41:09;100453.94;;;10.06;48.86
30636;BME280;17400;52.392;9.750;2023-04-25T09:43:38;100447.66;;;9.98;47.35
30636;BME280;17400;52.392;9.750;2023-04-25T09:46:08;100448.56;;;10.12;48.80
30636;BME280;17400;52.392;9.750;2023-04-25T09:48:37;100461.13;;;10.27;47.27
30636;BME280;17400;52.392;9.750;2023-04-25T09:51:08;100446.78;;;10.33;47.04
30636;BME280;17400;52.392;9.750;2023-04-25T09:53:38;100451.94;;;10.28;46.90
30636;BME280;17400;52.392;9.750;2023-04-25T09:56:07;100466.84;;;10.10;46.50
30636;BME280;17400;52.392;9.750;2023-04-25T09:58:36;100452.00;;;10.34;46.28
30636;BME280;17400;52.392;9.750;2023-04-25T10:01:05;100456.34;;;10.29;46.31
30636;BME280;17400;52.392;9.750;2023-04-25T10:03:36;100463.56;;;10.15;46.59
30636;BME280;17400;52.392;9.750;2023-04-25T10:06:09;100462.44;;;10.38;46.96
30636;BME280;17400;52.392;9.750;2023-04-25T10:08:39;100463.09;;;10.46;47.89
30636;BME280;17400;52.392;9.750;2023-04-25T10:11:08;100462.47;;;10.44;47.55
30636;BME280;17400;52.392;9.750;2023-04-25T10:13:36;100467.84;;;10.38;46.78
30636;BME280;17400;52.392;9.750;2023-04-25T10:16:04;100488.19;;;10.27;47.11
30636;BME280;17400;52.392;9.750;2023-04-25T10:18:32;100483.56;;;10.21;47.23
30636;BME280;17400;52.392;9.750;2023-04-25T10:21:01;100488.50;;;10.10;47.52
30636;BME280;17400;52.392;9.750;2023-04-25T10:23:32;100487.88;;;10.08;48.42
30636;BME280;17400;52.392;9.750;2023-04-25T10:26:01;100489.78;;;10.21;48.58
30636;BME280;17400;52.392;9.750;2023-04-25T10:28:29;100491.84;;;10.12;49.14
30636;BME280;17400;52.392;9.750;2023-04-25T10:30:57;100510.16;;;10.17;49.07
30636;BME280;17400;52.392;9.750;2023-04-25T10:33:36;100500.66;;;10.28;48.81
30636;BME280;17400;52.392;9.750;2023-04-25T10:36:11;100497.78;;;10.29;49.06
30636;BME280;17400;52.392;9.750;2023-04-25T10:38:44;100501.09;;;10.31;48.89
30636;BME280;17400;52.392;9.750;2023-04-25T10:41:12;100505.53;;;10.39;49.51
30636;BME280;17400;52.392;9.750;2023-04-25T10:43:42;100507.91;;;10.21;47.95
30636;BME280;17400;52.392;9.750;2023-04-25T10:46:15;100518.91;;;10.12;49.58
30636;BME280;17400;52.392;9.750;2023-04-25T10:48:45;100502.22;;;10.09;48.69
30636;BME280;17400;52.392;9.750;2023-04-25T10:51:19;100516.03;;;10.21;49.40
30636;BME280;17400;52.392;9.750;2023-04-25T10:53:57;100506.25;;;10.26;49.71
30636;BME280;17400;52.392;9.750;2023-04-25T10:56:28;100506.13;;;10.34;49.88
30636;BME280;17400;52.392;9.750;2023-04-25T10:59:04;100511.03;;;10.17;50.18
30636;BME280;17400;52.392;9.750;2023-04-25T11:01:37;100512.75;;;10.25;50.12
30636;BME280;17400;52.392;9.750;2023-04-25T11:04:05;100516.50;;;10.31;48.51
30636;BME280;17400;52.392;9.750;2023-04-25T11:06:45;100515.38;;;10.18;48.31
30636;BME280;17400;52.392;9.750;2023-04-25T11:09:23;100518.97;;;10.26;48.71
30636;BME280;17400;52.392;9.750;2023-04-25T11:11:54;100519.09;;;10.11;48.99
30636;BME280;17400;52.392;9.750;2023-04-25T11:14:22;100520.25;;;10.30;48.49
30636;BME280;17400;52.392;9.750;2023-04-25T11:16:52;100518.56;;;10.29;45.39
30636;BME280;17400;52.392;9.750;2023-04-25T11:19:20;100516.84;;;10.49;45.50
30636;BME280;17400;52.392;9.750;2023-04-25T11:21:48;100506.91;;;10.70;44.93
30636;BME280;17400;52.392;9.750;2023-04-25T11:24:16;100520.06;;;10.80;44.74
30636;BME280;17400;52.392;9.750;2023-04-25T11:26:46;100515.91;;;10.77;45.20
30636;BME280;17400;52.392;9.750;2023-04-25T11:29:14;100518.56;;;10.64;46.67
30636;BME280;17400;52.392;9.750;2023-04-25T11:31:43;100523.16;;;10.28;47.45
30636;BME280;17400;52.392;9.750;2023-04-25T11:34:12;100531.47;;;10.27;49.05
30636;BME280;17400;52.392;9.750;2023-04-25T11:36:45;100549.91;;;10.16;49.71
30636;BME280;17400;52.392;9.750;2023-04-25T11:39:13;100541.81;;;10.16;51.51
30636;BME280;17400;52.392;9.750;2023-04-25T11:41:43;100550.75;;;10.17;56.79
30636;BME280;17400;52.392;9.750;2023-04-25T11:44:16;100575.31;;;9.87;63.19
30636;BME280;17400;52.392;9.750;2023-04-25T11:46:44;100580.22;;;9.77;70.04
30636;BME280;17400;52.392;9.750;2023-04-25T11:49:13;100573.56;;;9.79;71.94
30636;BME280;17400;52.392;9.750;2023-04-25T11:51:42;100573.69;;;9.93;74.22
30636;BME280;17400;52.392;9.750;2023-04-25T11:54:11;100561.72;;;10.09;72.00
30636;BME280;17400;52.392;9.750;2023-04-25T11:56:40;100563.78;;;10.07;69.52
30636;BME280;17400;52.392;9.750;2023-04-25T11:59:08;100561.38;;;10.18;70.69
30636;BME280;17400;52.392;9.750;2023-04-25T12:01:40;100558.19;;;10.37;66.68
30636;BME280;17400;52.392;9.750;2023-04-25T12:04:12;100555.75;;;10.48;66.88
30636;BME280;17400;52.392;9.750;2023-04-25T12:06:42;100560.13;;;10.49;68.24
30636;BME280;17400;52.392;9.750;2023-04-25T12:09:11;100561.56;;;10.45;64.03
30636;BME280;17400;52.392;9.750;2023-04-25T12:11:43;100567.25;;;10.29;60.91
30636;BME280;17400;52.392;9.750;2023-04-25T12:14:11;100568.94;;;10.30;61.81
30636;BME280;17400;52.392;9.750;2023-04-25T12:16:44;100572.78;;;10.84;58.88
30636;BME280;17400;52.392;9.750;2023-04-25T12:19:15;100573.84;;;10.96;49.61
30636;BME280;17400;52.392;9.750;2023-04-25T12:21:43;100566.44;;;11.25;48.71
30636;BME280;17400;52.392;9.750;2023-04-25T12:24:25;100558.56;;;11.50;46.58
30636;BME280;17400;52.392;9.750;2023-04-25T12:27:01;100556.06;;;11.69;45.37
30636;BME280;17400;52.392;9.750;2023-04-25T12:29:30;100558.78;;;11.96;45.81
30636;BME280;17400;52.392;9.750;2023-04-25T12:32:09;100561.47;;;11.56;44.97
30636;BME280;17400;52.392;9.750;2023-04-25T12:34:36;100572.66;;;11.19;45.75
30636;BME280;17400;52.392;9.750;2023-04-25T12:37:04;100574.94;;;11.02;46.54
30636;BME280;17400;52.392;9.750;2023-04-25T12:39:32;100591.59;;;10.99;47.47
30636;BME280;17400;52.392;9.750;2023-04-25T12:42:00;100602.47;;;10.64;48.55
30636;BME280;17400;52.392;9.750;2023-04-25T12:44:28;100596.41;;;10.27;48.19
30636;BME280;17400;52.392;9.750;2023-04-25T12:46:56;100611.78;;;10.26;49.40
30636;BME280;17400;52.392;9.750;2023-04-25T12:49:25;100606.88;;;10.08;49.60
30636;BME280;17400;52.392;9.750;2023-04-25T12:51:53;100599.22;;;10.18;48.41
30636;BME280;17400;52.392;9.750;2023-04-25T12:54:21;100599.31;;;10.25;48.49
30636;BME280;17400;52.392;9.750;2023-04-25T12:56:48;100598.91;;;10.28;48.28
30636;BME280;17400;52.392;9.750;2023-04-25T12:59:16;100605.34;;;10.27;47.72
30636;BME280;17400;52.392;9.750;2023-04-25T13:01:44;100610.13;;;10.25;48.30